createdAt,value
2019-02-05T00:02:25.851Z,101133.10
2019-02-05T00:05:16.211Z,101133.58
2019-02-05T00:07:59.286Z,101136.62
2019-02-05T00:10:49.871Z,101132.28
2019-02-05T00:13:32.577Z,101140.09
2019-02-05T00:16:22.968Z,101149.66
2019-02-05T00:19:05.809Z,101140.98
2019-02-05T00:21:56.220Z,101146.63
2019-02-05T00:24:39.268Z,101148.36
2019-02-05T00:27:29.620Z,101140.55
2019-02-05T00:30:12.455Z,101141.41
2019-02-05T00:33:15.809Z,101152.69
2019-02-05T00:38:58.533Z,101144.02
2019-02-05T00:41:48.960Z,101165.72
2019-02-05T00:44:39.354Z,101166.16
2019-02-05T00:47:21.917Z,101168.30
2019-02-05T00:50:12.497Z,101167.88
2019-02-05T00:52:55.176Z,101170.92
2019-02-05T00:55:45.553Z,101165.28
2019-02-05T00:58:28.832Z,101163.55
2019-02-05T01:01:19.240Z,101163.97
2019-02-05T01:04:09.555Z,101166.16
2019-02-05T01:06:52.619Z,101158.75
2019-02-05T01:09:42.981Z,101154.00
2019-02-05T01:12:26.411Z,101154.00
2019-02-05T01:18:45.664Z,101170.91
2019-02-05T01:21:36.030Z,101158.77
2019-02-05T01:24:26.392Z,101169.62
2019-02-05T01:27:09.199Z,101173.94
2019-02-05T01:29:52.087Z,101170.04
2019-02-05T01:35:44.319Z,101172.20
2019-02-05T01:38:34.687Z,101167.86
2019-02-05T01:41:17.739Z,101171.33
2019-02-05T01:47:36.611Z,101161.78
2019-02-05T01:53:49.543Z,101175.25
2019-02-05T01:56:40.422Z,101180.00
2019-02-05T01:59:25.097Z,101170.48
2019-02-05T02:02:07.823Z,101185.64
2019-02-05T02:04:58.203Z,101182.19
2019-02-05T02:07:41.018Z,101181.75
2019-02-05T02:10:24.689Z,101190.00
2019-02-05T02:13:15.029Z,101185.64
2019-02-05T02:15:58.049Z,101193.87
2019-02-05T02:18:48.426Z,101190.00
2019-02-05T02:21:31.207Z,101177.41
2019-02-05T02:24:21.600Z,101183.45
2019-02-05T02:27:04.772Z,101178.26
2019-02-05T02:29:55.166Z,101167.39
2019-02-05T02:32:38.100Z,101173.92
2019-02-05T02:35:28.489Z,101166.53
2019-02-05T02:38:11.774Z,101167.00
2019-02-05T02:41:02.136Z,101170.02
2019-02-05T02:43:45.398Z,101172.19
2019-02-05T02:46:35.771Z,101171.75
2019-02-05T02:49:18.971Z,101179.98
2019-02-05T02:52:09.315Z,101180.43
2019-02-05T02:54:52.729Z,101184.33
2019-02-05T02:57:44.969Z,101195.16
2019-02-05T03:00:27.586Z,101189.54
2019-02-05T03:03:17.944Z,101195.61
2019-02-05T03:06:00.771Z,101193.86
2019-02-05T03:08:51.108Z,101185.22
2019-02-05T03:11:34.492Z,101189.12
2019-02-05T03:14:24.880Z,101185.20
2019-02-05T03:17:07.658Z,101188.23
2019-02-05T03:19:58.018Z,101193.87
2019-02-05T03:22:41.535Z,101197.34
2019-02-05T03:25:33.625Z,101198.20
2019-02-05T03:28:16.604Z,101196.92
2019-02-05T03:31:07.004Z,101195.20
2019-02-05T03:33:50.360Z,101196.04
2019-02-05T03:36:40.767Z,101199.50
2019-02-05T03:39:45.101Z,101189.11
2019-02-05T03:42:35.468Z,101186.92
2019-02-05T03:45:18.707Z,101188.23
2019-02-05T03:48:09.203Z,101190.42
2019-02-05T03:50:54.217Z,101187.81
2019-02-05T03:54:25.143Z,101187.38
2019-02-05T03:57:32.086Z,101189.98
2019-02-05T04:04:01.136Z,101187.80
2019-02-05T04:07:29.550Z,101193.45
2019-02-05T04:10:37.816Z,101190.86
2019-02-05T04:14:06.324Z,101193.91
2019-02-05T04:16:55.602Z,101194.31
2019-02-05T04:20:13.413Z,101199.09
2019-02-05T04:23:21.488Z,101206.47
2019-02-05T04:26:38.727Z,101209.95
2019-02-05T04:29:43.883Z,101210.36
2019-02-05T04:33:12.353Z,101206.91
2019-02-05T04:36:01.471Z,101206.02
2019-02-05T04:39:29.919Z,101197.78
2019-02-05T04:42:17.830Z,101196.94
2019-02-05T04:49:49.044Z,101198.23
2019-02-05T04:52:51.200Z,101205.62
2019-02-05T04:56:19.657Z,101202.14
2019-02-05T04:59:21.357Z,101204.29
2019-02-05T05:02:23.204Z,101199.09
2019-02-05T05:05:25.291Z,101206.47
2019-02-05T05:08:53.755Z,101215.58
2019-02-05T05:11:36.301Z,101211.26
2019-02-05T05:14:26.741Z,101216.03
2019-02-05T05:17:09.274Z,101219.92
2019-02-05T05:19:59.623Z,101219.91
2019-02-05T05:22:42.414Z,101214.28
2019-02-05T05:25:32.906Z,101212.97
2019-02-05T05:28:16.341Z,101219.05
2019-02-05T05:31:06.745Z,101212.55
2019-02-05T05:33:49.976Z,101220.80
2019-02-05T05:36:49.332Z,101213.41
2019-02-05T05:39:31.915Z,101218.20
2019-02-05T05:42:22.313Z,101221.23
2019-02-05T05:45:05.781Z,101230.34
2019-02-05T05:47:56.214Z,101226.01
2019-02-05T05:50:38.842Z,101239.02
2019-02-05T05:53:29.211Z,101236.86
2019-02-05T05:56:12.477Z,101237.70
2019-02-05T05:59:02.882Z,101239.02
2019-02-05T06:01:46.211Z,101239.47
2019-02-05T06:04:36.609Z,101245.98
2019-02-05T06:07:19.764Z,101239.02
2019-02-05T06:10:11.045Z,101239.47
2019-02-05T06:12:53.736Z,101243.36
2019-02-05T06:15:44.136Z,101245.11
2019-02-05T06:18:50.107Z,101257.26
2019-02-05T06:21:40.527Z,101256.37
2019-02-05T06:24:43.842Z,101261.14
2019-02-05T06:27:34.198Z,101272.42
2019-02-05T06:30:17.409Z,101273.73
2019-02-05T06:33:07.879Z,101269.41
2019-02-05T06:36:12.721Z,101273.31
2019-02-05T06:42:13.324Z,101281.12
2019-02-05T06:45:05.707Z,101287.64
2019-02-05T06:47:48.685Z,101285.91
2019-02-05T06:50:39.062Z,101295.42
2019-02-05T06:53:21.596Z,101285.45
2019-02-05T06:56:11.982Z,101302.38
2019-02-05T06:59:16.713Z,101293.25
2019-02-05T07:02:27.544Z,101304.08
2019-02-05T07:05:11.014Z,101301.47
2019-02-05T07:08:01.570Z,101305.84
2019-02-05T07:10:44.743Z,101314.09
2019-02-05T07:13:35.184Z,101308.84
2019-02-05T07:16:25.581Z,101317.95
2019-02-05T07:19:08.382Z,101320.14
2019-02-05T07:21:58.790Z,101324.91
2019-02-05T07:24:42.144Z,101326.20
2019-02-05T07:27:32.555Z,101333.59
2019-02-05T07:30:19.673Z,101333.19
2019-02-05T07:33:10.209Z,101340.11
2019-02-05T07:36:14.551Z,101328.84
2019-02-05T07:39:27.524Z,101334.06
2019-02-05T07:42:30.194Z,101325.78
2019-02-05T07:45:40.056Z,101327.95
2019-02-05T07:48:22.797Z,101332.75
2019-02-05T07:51:13.194Z,101335.34
2019-02-05T07:53:55.943Z,101334.08
2019-02-05T07:56:46.299Z,101345.78
2019-02-05T07:59:29.612Z,101345.34
2019-02-05T08:02:19.996Z,101341.87
2019-02-05T08:05:03.045Z,101348.80
2019-02-05T08:07:53.490Z,101348.39
2019-02-05T08:10:36.972Z,101362.30
2019-02-05T08:13:27.469Z,101365.77
2019-02-05T08:16:10.919Z,101378.76
2019-02-05T08:19:01.311Z,101372.23
2019-02-05T08:21:44.830Z,101375.74
2019-02-05T08:24:35.232Z,101377.91
2019-02-05T08:27:18.396Z,101380.06
2019-02-05T08:30:14.216Z,101378.77
2019-02-05T08:32:57.137Z,101377.89
2019-02-05T08:35:47.526Z,101371.84
2019-02-05T08:38:30.566Z,101372.70
2019-02-05T08:41:20.966Z,101368.79
2019-02-05T08:44:04.190Z,101368.35
2019-02-05T08:46:54.844Z,101369.24
2019-02-05T08:49:37.860Z,101373.58
2019-02-05T08:52:28.258Z,101382.70
2019-02-05T08:55:12.576Z,101387.05
2019-02-05T08:58:05.477Z,101391.39
2019-02-05T09:00:48.673Z,101390.52
2019-02-05T09:03:39.093Z,101390.55
2019-02-05T09:06:22.301Z,101389.23
2019-02-05T09:09:12.685Z,101396.60
2019-02-05T09:11:56.037Z,101399.67
2019-02-05T09:14:46.640Z,101404.89
2019-02-05T09:17:29.566Z,101409.23
2019-02-05T09:20:20.048Z,101410.96
2019-02-05T09:23:03.102Z,101400.56
2019-02-05T09:25:53.527Z,101408.38
2019-02-05T09:28:43.925Z,101407.50
2019-02-05T09:31:34.337Z,101409.69
2019-02-05T09:34:40.872Z,101417.50
2019-02-05T09:37:31.045Z,101411.42
2019-02-05T09:40:15.980Z,101415.78
2019-02-05T09:43:06.552Z,101415.33
2019-02-05T09:46:11.059Z,101418.83
2019-02-05T09:49:01.446Z,101415.78
2019-02-05T09:51:44.856Z,101421.44
2019-02-05T09:54:35.281Z,101415.33
2019-02-05T09:57:18.030Z,101422.29
2019-02-05T10:00:49.210Z,101422.29
2019-02-05T10:03:32.754Z,101427.50
2019-02-05T10:06:15.494Z,101429.68
2019-02-05T10:12:22.482Z,101433.14
2019-02-05T10:15:33.050Z,101447.51
2019-02-05T10:18:37.310Z,101442.28
2019-02-05T10:21:27.691Z,101447.08
2019-02-05T10:24:11.169Z,101457.05
2019-02-05T10:27:01.531Z,101454.88
2019-02-05T10:29:44.415Z,101467.08
2019-02-05T10:32:34.800Z,101460.09
2019-02-05T10:35:18.475Z,101467.06
2019-02-05T10:41:11.385Z,101468.80
2019-02-05T10:44:01.791Z,101467.06
2019-02-05T10:46:44.735Z,101468.34
2019-02-05T10:49:35.381Z,101465.75
2019-02-05T10:52:18.026Z,101468.80
2019-02-05T10:55:10.001Z,101469.22
2019-02-05T10:57:53.271Z,101471.41
2019-02-05T11:00:43.656Z,101471.83
2019-02-05T11:03:46.857Z,101462.71
2019-02-05T11:06:37.232Z,101470.53
2019-02-05T11:09:20.717Z,101466.16
2019-02-05T11:12:11.111Z,101459.20
2019-02-05T11:15:16.758Z,101462.67
2019-02-05T11:21:37.912Z,101453.98
2019-02-05T11:24:28.316Z,101442.22
2019-02-05T11:27:11.765Z,101440.02
2019-02-05T11:30:02.127Z,101431.35
2019-02-05T11:32:44.864Z,101431.33
2019-02-05T11:35:35.269Z,101426.12
2019-02-05T11:38:18.144Z,101423.08
2019-02-05T11:41:08.535Z,101423.92
2019-02-05T11:44:13.572Z,101416.97
2019-02-05T11:47:04.131Z,101420.89
2019-02-05T11:49:47.377Z,101416.95
2019-02-05T11:52:37.729Z,101420.88
2019-02-05T11:55:22.163Z,101419.13
2019-02-05T11:58:12.914Z,101418.25
2019-02-05T12:04:23.169Z,101429.97
2019-02-05T12:07:13.568Z,101436.91
2019-02-05T12:13:40.469Z,101428.66
2019-02-05T12:16:23.392Z,101429.49
2019-02-05T12:19:13.855Z,101437.83
2019-02-05T12:21:56.731Z,101441.75
2019-02-05T12:24:47.117Z,101434.77
2019-02-05T12:27:29.731Z,101439.12
2019-02-05T12:34:10.202Z,101440.86
2019-02-05T12:37:01.507Z,101436.06
2019-02-05T12:39:51.952Z,101441.72
2019-02-05T12:42:35.279Z,101438.67
2019-02-05T12:45:27.572Z,101433.48
2019-02-05T12:48:10.360Z,101433.94
2019-02-05T12:51:00.724Z,101434.36
2019-02-05T12:53:43.653Z,101433.05
2019-02-05T12:56:34.033Z,101435.19
2019-02-05T12:59:17.584Z,101436.50
2019-02-05T13:05:37.013Z,101439.53
2019-02-05T13:08:27.350Z,101436.50
2019-02-05T13:11:17.784Z,101441.73
2019-02-05T13:14:08.425Z,101441.73
2019-02-05T13:16:51.399Z,101444.31
2019-02-05T13:19:41.745Z,101437.83
2019-02-05T13:22:25.213Z,101441.30
2019-02-05T13:25:18.150Z,101433.47
2019-02-05T13:28:00.915Z,101435.22
2019-02-05T13:30:51.297Z,101433.05
2019-02-05T13:33:34.851Z,101433.08
2019-02-05T13:36:25.233Z,101433.92
2019-02-05T13:39:11.859Z,101427.42
2019-02-05T13:42:02.227Z,101431.76
2019-02-05T13:44:45.215Z,101432.62
2019-02-05T13:47:35.627Z,101433.47
2019-02-05T13:50:19.562Z,101437.81
2019-02-05T13:53:02.899Z,101435.59
2019-02-05T13:55:53.305Z,101439.97
2019-02-05T13:58:43.677Z,101446.05
2019-02-05T14:01:26.243Z,101442.16
2019-02-05T14:04:09.317Z,101449.53
2019-02-05T14:06:59.705Z,101442.58
2019-02-05T14:09:42.940Z,101444.72
2019-02-05T14:12:33.313Z,101450.41
2019-02-05T14:15:16.214Z,101440.84
2019-02-05T14:18:27.332Z,101452.11
2019-02-05T14:21:10.394Z,101449.09
2019-02-05T14:24:00.797Z,101444.75
2019-02-05T14:26:43.952Z,101447.77
2019-02-05T14:33:02.029Z,101446.00
2019-02-05T14:35:52.461Z,101443.39
2019-02-05T14:38:42.940Z,101437.74
2019-02-05T14:41:25.506Z,101435.02
2019-02-05T14:44:08.680Z,101441.53
2019-02-05T14:46:59.083Z,101440.78
2019-02-05T14:49:41.955Z,101444.67
2019-02-05T14:52:32.412Z,101445.48
2019-02-05T14:55:15.597Z,101447.30
2019-02-05T14:58:07.598Z,101450.32
2019-02-05T15:01:12.029Z,101442.95
2019-02-05T15:04:02.440Z,101449.05
2019-02-05T15:06:45.773Z,101445.09
2019-02-05T15:09:36.177Z,101445.55
2019-02-05T15:12:40.858Z,101442.95
2019-02-05T15:18:24.693Z,101445.94
2019-02-05T15:21:15.084Z,101438.94
2019-02-05T15:24:06.131Z,101436.77
2019-02-05T15:26:48.718Z,101437.20
2019-02-05T15:29:39.412Z,101447.19
2019-02-05T15:32:41.018Z,101448.12
2019-02-05T15:35:31.543Z,101439.80
2019-02-05T15:38:14.464Z,101435.08
2019-02-05T15:41:04.872Z,101436.36
2019-02-05T15:43:47.447Z,101432.93
2019-02-05T15:46:37.876Z,101431.13
2019-02-05T15:49:20.852Z,101427.63
2019-02-05T15:52:11.235Z,101430.71
2019-02-05T15:54:54.545Z,101422.88
2019-02-05T15:57:37.303Z,101427.27
2019-02-05T16:00:27.883Z,101429.46
2019-02-05T16:03:10.916Z,101437.28
2019-02-05T16:06:01.285Z,101436.88
2019-02-05T16:08:44.564Z,101440.67
2019-02-05T16:11:34.959Z,101440.28
2019-02-05T16:14:17.892Z,101437.63
2019-02-05T16:17:08.317Z,101445.08
2019-02-05T16:19:51.210Z,101448.59
2019-02-05T16:22:41.738Z,101449.41
2019-02-05T16:25:25.092Z,101442.05
2019-02-05T16:28:15.786Z,101442.88
2019-02-05T16:31:18.504Z,101447.69
2019-02-05T16:34:08.879Z,101443.77
2019-02-05T16:36:51.468Z,101443.75
2019-02-05T16:39:41.841Z,101446.34
2019-02-05T16:42:25.106Z,101439.80
2019-02-05T16:45:17.756Z,101437.61
2019-02-05T16:48:00.691Z,101439.80
2019-02-05T16:50:51.075Z,101434.97
2019-02-05T16:53:34.730Z,101442.42
2019-02-05T16:56:18.044Z,101441.62
2019-02-05T16:59:08.473Z,101449.02
2019-02-05T17:01:51.298Z,101447.26
2019-02-05T17:04:41.692Z,101454.65
2019-02-05T17:07:24.528Z,101454.69
2019-02-05T17:13:45.458Z,101452.48
2019-02-05T17:16:36.036Z,101449.49
2019-02-05T17:19:19.766Z,101460.28
2019-02-05T17:22:10.251Z,101448.12
2019-02-05T17:24:52.973Z,101450.30
2019-02-05T17:27:43.389Z,101449.88
2019-02-05T17:30:27.983Z,101451.59
2019-02-05T17:33:18.375Z,101452.53
2019-02-05T17:36:23.392Z,101448.20
2019-02-05T17:39:14.373Z,101445.55
2019-02-05T17:41:57.319Z,101446.40
2019-02-05T17:44:47.710Z,101441.61
2019-02-05T17:47:52.220Z,101435.54
2019-02-05T17:50:42.709Z,101442.47
2019-02-05T17:53:25.617Z,101436.38
2019-02-05T17:56:16.024Z,101433.82
2019-02-05T17:59:20.719Z,101431.21
2019-02-05T18:02:11.106Z,101435.56
2019-02-05T18:04:54.075Z,101436.44
2019-02-05T18:07:44.617Z,101435.97
2019-02-05T18:10:49.651Z,101434.23
2019-02-05T18:13:40.080Z,101443.41
2019-02-05T18:16:30.474Z,101436.83
2019-02-05T18:19:13.416Z,101425.52
2019-02-05T18:22:04.089Z,101429.87
2019-02-05T18:24:47.233Z,101428.55
2019-02-05T18:27:37.630Z,101433.31
2019-02-05T18:30:21.613Z,101438.53
2019-02-05T18:33:12.002Z,101436.83
2019-02-05T18:35:55.491Z,101439.02
2019-02-05T18:38:45.865Z,101442.50
2019-02-05T18:41:48.839Z,101448.16
2019-02-05T18:44:39.358Z,101444.25
2019-02-05T18:47:22.085Z,101443.36
2019-02-05T18:50:15.369Z,101435.05
2019-02-05T18:52:59.685Z,101422.85
2019-02-05T18:55:42.759Z,101419.83
2019-02-05T18:58:33.179Z,101419.87
2019-02-05T19:01:16.386Z,101425.55
2019-02-05T19:04:06.895Z,101414.64
2019-02-05T19:06:49.656Z,101409.81
2019-02-05T19:09:40.072Z,101405.09
2019-02-05T19:12:23.194Z,101395.97
2019-02-05T19:15:33.438Z,101392.03
2019-02-05T19:18:16.857Z,101393.34
2019-02-05T19:21:07.273Z,101393.34
2019-02-05T19:23:52.593Z,101393.41
2019-02-05T19:26:48.079Z,101390.80
2019-02-05T19:29:32.077Z,101400.39
2019-02-05T19:35:35.740Z,101393.92
2019-02-05T19:38:26.799Z,101389.16
2019-02-05T19:41:10.720Z,101386.10
2019-02-05T19:44:01.693Z,101385.70
2019-02-05T19:46:57.250Z,101385.72
2019-02-05T19:50:09.385Z,101379.63
2019-02-05T19:53:13.790Z,101378.34
2019-02-05T19:56:04.807Z,101370.10
2019-02-05T19:59:09.535Z,101377.94
2019-02-05T20:02:00.606Z,101378.81
2019-02-05T20:04:44.624Z,101381.44
2019-02-05T20:07:36.479Z,101380.14
2019-02-05T20:10:40.865Z,101381.45
2019-02-05T20:13:39.902Z,101379.69
2019-02-05T20:16:36.069Z,101379.70
2019-02-05T20:19:27.041Z,101377.97
2019-02-05T20:22:10.869Z,101380.57
2019-02-05T20:25:01.807Z,101377.54
2019-02-05T20:27:46.017Z,101382.77
2019-02-05T20:30:36.967Z,101383.64
2019-02-05T20:33:21.105Z,101385.35
2019-02-05T20:36:12.113Z,101375.81
2019-02-05T20:38:55.427Z,101381.02
2019-02-05T20:41:46.429Z,101374.94
2019-02-05T20:44:29.696Z,101363.20
2019-02-05T20:47:20.721Z,101364.06
2019-02-05T20:50:05.306Z,101359.30
2019-02-05T20:52:56.501Z,101364.06
2019-02-05T20:55:39.921Z,101372.33
2019-02-05T20:58:31.123Z,101367.11
2019-02-05T21:01:35.299Z,101367.12
2019-02-05T21:04:26.313Z,101365.37
2019-02-05T21:07:09.706Z,101358.01
2019-02-05T21:10:00.692Z,101367.54
2019-02-05T21:12:44.246Z,101367.10
2019-02-05T21:15:35.371Z,101372.31
2019-02-05T21:18:19.099Z,101378.41
2019-02-05T21:21:10.068Z,101372.76
2019-02-05T21:23:53.338Z,101383.19
2019-02-05T21:26:44.366Z,101379.28
2019-02-05T21:29:27.865Z,101389.29
2019-02-05T21:32:18.857Z,101388.84
2019-02-05T21:35:02.480Z,101384.05
2019-02-05T21:37:53.423Z,101372.34
2019-02-05T21:40:37.263Z,101378.41
2019-02-05T21:43:28.264Z,101376.25
2019-02-05T21:46:11.857Z,101375.81
2019-02-05T21:49:02.819Z,101369.29
2019-02-05T21:51:46.240Z,101362.77
2019-02-05T21:54:37.243Z,101366.23
2019-02-05T21:57:21.132Z,101377.09
2019-02-05T22:00:55.982Z,101378.41
2019-02-05T22:04:01.158Z,101374.94
2019-02-05T22:06:52.182Z,101362.32
2019-02-05T22:09:35.633Z,101369.28
2019-02-05T22:12:26.727Z,101374.05
2019-02-05T22:14:58.583Z,101377.53
2019-02-05T22:17:50.059Z,101372.33
2019-02-05T22:20:33.494Z,101365.81
2019-02-05T22:23:24.588Z,101373.19
2019-02-05T22:26:08.469Z,101359.30
2019-02-05T22:28:59.408Z,101358.86
2019-02-05T22:31:43.352Z,101354.97
2019-02-05T22:34:39.207Z,101361.48
2019-02-05T22:37:38.643Z,101359.73
2019-02-05T22:40:29.635Z,101353.21
2019-02-05T22:43:12.990Z,101357.12
2019-02-05T22:46:03.974Z,101356.26
2019-02-05T22:49:08.226Z,101348.87
2019-02-05T22:51:51.647Z,101347.12
2019-02-05T22:54:42.687Z,101351.47
2019-02-05T22:57:26.026Z,101348.00
2019-02-05T23:04:23.451Z,101356.25
2019-02-05T23:07:11.369Z,101344.52
2019-02-05T23:10:40.417Z,101342.36
2019-02-05T23:13:24.324Z,101339.76
2019-02-05T23:16:15.633Z,101338.00
2019-02-05T23:18:58.951Z,101333.22
2019-02-05T23:21:49.842Z,101335.41
2019-02-05T23:24:33.730Z,101338.43
2019-02-05T23:27:24.633Z,101338.87
2019-02-05T23:30:12.394Z,101340.17
2019-02-05T23:33:03.303Z,101339.73
2019-02-05T23:35:46.708Z,101344.05
2019-02-05T23:38:38.243Z,101337.12
2019-02-05T23:41:21.450Z,101343.20
2019-02-05T23:44:12.391Z,101342.77
2019-02-05T23:46:55.975Z,101341.87
2019-02-05T23:49:46.908Z,101341.02
2019-02-05T23:52:30.307Z,101335.83
2019-02-05T23:55:21.596Z,101335.39
2019-02-05T23:58:05.638Z,101335.85
